sensor_id;sensor_type;location;lat;lon;timestamp;temperature;humidity
45643;DHT22;31358;46.008;11.144;2023-03-23T00:02:27;12.20;97.40
45643;DHT22;31358;46.008;11.144;2023-03-23T00:04:55;12.00;97.60
45643;DHT22;31358;46.008;11.144;2023-03-23T00:07:22;12.10;97.60
45643;DHT22;31358;46.008;11.144;2023-03-23T00:09:51;12.20;97.50
45643;DHT22;31358;46.008;11.144;2023-03-23T00:12:27;12.20;97.50
45643;DHT22;31358;46.008;11.144;2023-03-23T00:15:00;12.20;97.50
45643;DHT22;31358;46.008;11.144;2023-03-23T00:17:28;12.20;97.40
45643;DHT22;31358;46.008;11.144;2023-03-23T00:19:54;12.20;97.60
45643;DHT22;31358;46.008;11.144;2023-03-23T00:22:19;12.10;97.60
45643;DHT22;31358;46.008;11.144;2023-03-23T00:24:47;12.10;97.70
45643;DHT22;31358;46.008;11.144;2023-03-23T00:27:16;12.00;97.90
45643;DHT22;31358;46.008;11.144;2023-03-23T00:29:42;11.90;98.00
45643;DHT22;31358;46.008;11.144;2023-03-23T00:32:10;11.90;98.10
45643;DHT22;31358;46.008;11.144;2023-03-23T00:34:39;11.90;98.20
45643;DHT22;31358;46.008;11.144;2023-03-23T00:37:06;11.90;98.20
45643;DHT22;31358;46.008;11.144;2023-03-23T00:39:33;11.90;98.20
45643;DHT22;31358;46.008;11.144;2023-03-23T00:41:59;11.90;98.30
45643;DHT22;31358;46.008;11.144;2023-03-23T00:44:28;11.80;98.40
45643;DHT22;31358;46.008;11.144;2023-03-23T00:46:56;11.80;98.60
45643;DHT22;31358;46.008;11.144;2023-03-23T00:49:23;11.90;98.50
45643;DHT22;31358;46.008;11.144;2023-03-23T00:51:54;12.00;98.20
45643;DHT22;31358;46.008;11.144;2023-03-23T00:54:20;12.20;98.10
45643;DHT22;31358;46.008;11.144;2023-03-23T00:56:47;12.00;98.10
45643;DHT22;31358;46.008;11.144;2023-03-23T00:59:13;11.80;98.50
45643;DHT22;31358;46.008;11.144;2023-03-23T01:01:39;11.70;98.80
45643;DHT22;31358;46.008;11.144;2023-03-23T01:04:05;11.80;98.60
45643;DHT22;31358;46.008;11.144;2023-03-23T01:06:33;11.70;98.80
45643;DHT22;31358;46.008;11.144;2023-03-23T01:09:01;11.80;98.70
45643;DHT22;31358;46.008;11.144;2023-03-23T01:11:28;12.00;98.70
45643;DHT22;31358;46.008;11.144;2023-03-23T01:13:54;12.10;98.30
45643;DHT22;31358;46.008;11.144;2023-03-23T01:16:20;11.90;98.40
45643;DHT22;31358;46.008;11.144;2023-03-23T01:18:46;11.70;98.80
45643;DHT22;31358;46.008;11.144;2023-03-23T01:21:14;11.80;98.90
45643;DHT22;31358;46.008;11.144;2023-03-23T01:23:41;11.70;99.00
45643;DHT22;31358;46.008;11.144;2023-03-23T01:26:12;11.70;99.10
45643;DHT22;31358;46.008;11.144;2023-03-23T01:28:38;11.70;99.20
45643;DHT22;31358;46.008;11.144;2023-03-23T01:31:07;11.70;99.20
45643;DHT22;31358;46.008;11.144;2023-03-23T01:33:33;11.60;99.10
45643;DHT22;31358;46.008;11.144;2023-03-23T01:36:09;11.60;99.20
45643;DHT22;31358;46.008;11.144;2023-03-23T01:38:36;11.60;99.20
45643;DHT22;31358;46.008;11.144;2023-03-23T01:41:03;11.70;99.00
45643;DHT22;31358;46.008;11.144;2023-03-23T01:43:29;11.80;99.00
45643;DHT22;31358;46.008;11.144;2023-03-23T01:45:55;11.70;99.00
45643;DHT22;31358;46.008;11.144;2023-03-23T01:48:25;11.60;99.30
45643;DHT22;31358;46.008;11.144;2023-03-23T01:53:22;11.40;99.50
45643;DHT22;31358;46.008;11.144;2023-03-23T01:55:51;11.40;99.60
45643;DHT22;31358;46.008;11.144;2023-03-23T01:58:22;11.40;99.70
45643;DHT22;31358;46.008;11.144;2023-03-23T02:00:57;11.50;99.80
45643;DHT22;31358;46.008;11.144;2023-03-23T02:03:25;11.60;99.60
45643;DHT22;31358;46.008;11.144;2023-03-23T02:05:51;11.70;99.40
45643;DHT22;31358;46.008;11.144;2023-03-23T02:08:19;11.70;99.10
45643;DHT22;31358;46.008;11.144;2023-03-23T02:10:45;11.50;99.30
45643;DHT22;31358;46.008;11.144;2023-03-23T02:13:11;11.30;99.60
45643;DHT22;31358;46.008;11.144;2023-03-23T02:19:05;11.10;99.90
45643;DHT22;31358;46.008;11.144;2023-03-23T02:26:55;11.20;99.90
45643;DHT22;31358;46.008;11.144;2023-03-23T02:34:51;11.60;99.90
45643;DHT22;31358;46.008;11.144;2023-03-23T02:37:27;11.40;99.70
45643;DHT22;31358;46.008;11.144;2023-03-23T02:40:06;11.30;99.70
45643;DHT22;31358;46.008;11.144;2023-03-23T02:42:38;11.30;99.90
45643;DHT22;31358;46.008;11.144;2023-03-23T02:45:07;11.50;99.90
45643;DHT22;31358;46.008;11.144;2023-03-23T02:47:35;11.50;99.70
45643;DHT22;31358;46.008;11.144;2023-03-23T02:50:03;11.20;99.90
45643;DHT22;31358;46.008;11.144;2023-03-23T02:52:31;11.10;99.90
45643;DHT22;31358;46.008;11.144;2023-03-23T02:54:58;11.10;99.90
45643;DHT22;31358;46.008;11.144;2023-03-23T02:57:25;11.00;99.90
45643;DHT22;31358;46.008;11.144;2023-03-23T02:59:53;11.00;99.90
45643;DHT22;31358;46.008;11.144;2023-03-23T03:02:26;11.00;99.90
45643;DHT22;31358;46.008;11.144;2023-03-23T03:07:38;11.00;99.90
45643;DHT22;31358;46.008;11.144;2023-03-23T03:10:22;11.00;99.90
45643;DHT22;31358;46.008;11.144;2023-03-23T03:15:40;11.10;99.90
45643;DHT22;31358;46.008;11.144;2023-03-23T03:21:00;11.50;99.90
45643;DHT22;31358;46.008;11.144;2023-03-23T03:23:27;11.40;99.90
45643;DHT22;31358;46.008;11.144;2023-03-23T03:25:55;11.60;99.90
45643;DHT22;31358;46.008;11.144;2023-03-23T03:28:24;11.50;99.90
45643;DHT22;31358;46.008;11.144;2023-03-23T03:30:56;11.60;99.90
45643;DHT22;31358;46.008;11.144;2023-03-23T03:33:26;11.40;99.90
45643;DHT22;31358;46.008;11.144;2023-03-23T03:35:57;11.40;99.90
45643;DHT22;31358;46.008;11.144;2023-03-23T03:38:25;11.30;99.90
45643;DHT22;31358;46.008;11.144;2023-03-23T03:40:52;10.90;99.90
45643;DHT22;31358;46.008;11.144;2023-03-23T03:43:18;10.80;99.90
45643;DHT22;31358;46.008;11.144;2023-03-23T03:45:44;10.80;99.90
45643;DHT22;31358;46.008;11.144;2023-03-23T03:48:10;11.00;99.90
45643;DHT22;31358;46.008;11.144;2023-03-23T03:50:36;11.00;99.90
45643;DHT22;31358;46.008;11.144;2023-03-23T03:53:02;11.10;99.90
45643;DHT22;31358;46.008;11.144;2023-03-23T03:55:28;11.10;99.90
45643;DHT22;31358;46.008;11.144;2023-03-23T03:57:55;11.00;99.90
45643;DHT22;31358;46.008;11.144;2023-03-23T04:00:21;10.90;99.90
45643;DHT22;31358;46.008;11.144;2023-03-23T04:02:50;11.00;99.90
45643;DHT22;31358;46.008;11.144;2023-03-23T04:05:21;11.00;99.90
45643;DHT22;31358;46.008;11.144;2023-03-23T04:07:47;10.80;99.90
45643;DHT22;31358;46.008;11.144;2023-03-23T04:10:15;10.90;99.90
45643;DHT22;31358;46.008;11.144;2023-03-23T04:12:41;10.80;99.90
45643;DHT22;31358;46.008;11.144;2023-03-23T04:15:07;10.80;99.90
45643;DHT22;31358;46.008;11.144;2023-03-23T04:17:34;10.70;99.90
45643;DHT22;31358;46.008;11.144;2023-03-23T04:19:59;10.80;99.90
45643;DHT22;31358;46.008;11.144;2023-03-23T04:22:26;10.90;99.90
45643;DHT22;31358;46.008;11.144;2023-03-23T04:24:59;10.70;99.90
45643;DHT22;31358;46.008;11.144;2023-03-23T04:27:27;10.70;99.90
45643;DHT22;31358;46.008;11.144;2023-03-23T04:29:57;10.80;99.90
45643;DHT22;31358;46.008;11.144;2023-03-23T04:32:25;10.80;99.90
45643;DHT22;31358;46.008;11.144;2023-03-23T04:34:58;10.70;99.90
45643;DHT22;31358;46.008;11.144;2023-03-23T04:37:26;10.60;99.90
45643;DHT22;31358;46.008;11.144;2023-03-23T04:39:57;10.50;99.90
45643;DHT22;31358;46.008;11.144;2023-03-23T04:42:30;10.50;99.90
45643;DHT22;31358;46.008;11.144;2023-03-23T04:44:59;10.50;99.90
45643;DHT22;31358;46.008;11.144;2023-03-23T04:47:26;10.60;99.90
45643;DHT22;31358;46.008;11.144;2023-03-23T04:49:56;10.70;99.90
45643;DHT22;31358;46.008;11.144;2023-03-23T04:52:25;10.70;99.90
45643;DHT22;31358;46.008;11.144;2023-03-23T04:54:51;10.60;99.90
45643;DHT22;31358;46.008;11.144;2023-03-23T04:57:18;10.60;99.90
45643;DHT22;31358;46.008;11.144;2023-03-23T04:59:43;10.60;99.90
45643;DHT22;31358;46.008;11.144;2023-03-23T05:02:12;10.40;99.90
45643;DHT22;31358;46.008;11.144;2023-03-23T05:04:39;10.20;99.90
45643;DHT22;31358;46.008;11.144;2023-03-23T05:07:06;10.10;99.90
45643;DHT22;31358;46.008;11.144;2023-03-23T05:09:33;10.10;99.90
45643;DHT22;31358;46.008;11.144;2023-03-23T05:12:07;10.00;99.90
45643;DHT22;31358;46.008;11.144;2023-03-23T05:14:34;10.10;99.90
45643;DHT22;31358;46.008;11.144;2023-03-23T05:17:00;10.00;99.90
45643;DHT22;31358;46.008;11.144;2023-03-23T05:19:25;10.00;99.90
45643;DHT22;31358;46.008;11.144;2023-03-23T05:21:53;10.10;99.90
45643;DHT22;31358;46.008;11.144;2023-03-23T05:24:19;10.20;99.90
45643;DHT22;31358;46.008;11.144;2023-03-23T05:26:45;10.40;99.90
45643;DHT22;31358;46.008;11.144;2023-03-23T05:29:14;10.50;99.90
45643;DHT22;31358;46.008;11.144;2023-03-23T05:31:41;10.60;99.90
45643;DHT22;31358;46.008;11.144;2023-03-23T05:34:06;10.50;99.90
45643;DHT22;31358;46.008;11.144;2023-03-23T05:36:32;10.50;99.90
45643;DHT22;31358;46.008;11.144;2023-03-23T05:38:58;10.40;99.90
45643;DHT22;31358;46.008;11.144;2023-03-23T05:41:25;10.60;99.90
45643;DHT22;31358;46.008;11.144;2023-03-23T05:43:51;10.60;99.90
45643;DHT22;31358;46.008;11.144;2023-03-23T05:46:17;10.50;99.90
45643;DHT22;31358;46.008;11.144;2023-03-23T05:48:43;10.60;99.90
45643;DHT22;31358;46.008;11.144;2023-03-23T05:51:09;10.60;99.90
45643;DHT22;31358;46.008;11.144;2023-03-23T05:53:35;10.70;99.90
45643;DHT22;31358;46.008;11.144;2023-03-23T05:56:02;10.80;99.90
45643;DHT22;31358;46.008;11.144;2023-03-23T05:58:29;10.70;99.90
45643;DHT22;31358;46.008;11.144;2023-03-23T06:00:54;10.50;99.90
45643;DHT22;31358;46.008;11.144;2023-03-23T06:03:21;10.50;99.90
45643;DHT22;31358;46.008;11.144;2023-03-23T06:05:48;10.60;99.90
45643;DHT22;31358;46.008;11.144;2023-03-23T06:08:14;10.50;99.90
45643;DHT22;31358;46.008;11.144;2023-03-23T06:10:39;10.70;99.90
45643;DHT22;31358;46.008;11.144;2023-03-23T06:13:05;10.80;99.90
45643;DHT22;31358;46.008;11.144;2023-03-23T06:15:31;10.90;99.90
45643;DHT22;31358;46.008;11.144;2023-03-23T06:17:59;10.90;99.90
45643;DHT22;31358;46.008;11.144;2023-03-23T06:20:25;10.90;99.90
45643;DHT22;31358;46.008;11.144;2023-03-23T06:22:50;11.00;99.90
45643;DHT22;31358;46.008;11.144;2023-03-23T06:25:18;11.00;99.90
45643;DHT22;31358;46.008;11.144;2023-03-23T06:27:44;11.00;99.90
45643;DHT22;31358;46.008;11.144;2023-03-23T06:30:12;11.00;99.90
45643;DHT22;31358;46.008;11.144;2023-03-23T06:32:38;11.10;99.90
45643;DHT22;31358;46.008;11.144;2023-03-23T06:35:04;11.10;99.90
45643;DHT22;31358;46.008;11.144;2023-03-23T06:37:32;11.20;99.90
45643;DHT22;31358;46.008;11.144;2023-03-23T06:39:57;11.20;99.90
45643;DHT22;31358;46.008;11.144;2023-03-23T06:42:24;11.20;99.90
45643;DHT22;31358;46.008;11.144;2023-03-23T06:44:50;11.40;99.90
45643;DHT22;31358;46.008;11.144;2023-03-23T06:47:17;11.60;99.90
45643;DHT22;31358;46.008;11.144;2023-03-23T06:49:42;11.60;99.90
45643;DHT22;31358;46.008;11.144;2023-03-23T06:52:08;11.80;99.90
45643;DHT22;31358;46.008;11.144;2023-03-23T06:54:34;12.00;99.90
45643;DHT22;31358;46.008;11.144;2023-03-23T06:57:00;12.00;99.90
45643;DHT22;31358;46.008;11.144;2023-03-23T06:59:26;12.00;99.90
45643;DHT22;31358;46.008;11.144;2023-03-23T07:01:52;12.00;99.90
45643;DHT22;31358;46.008;11.144;2023-03-23T07:04:18;12.10;99.90
45643;DHT22;31358;46.008;11.144;2023-03-23T07:06:44;12.00;99.90
45643;DHT22;31358;46.008;11.144;2023-03-23T07:09:09;12.00;99.90
45643;DHT22;31358;46.008;11.144;2023-03-23T07:11:35;11.90;99.90
45643;DHT22;31358;46.008;11.144;2023-03-23T07:14:01;12.00;99.90
45643;DHT22;31358;46.008;11.144;2023-03-23T07:16:28;12.10;99.90
45643;DHT22;31358;46.008;11.144;2023-03-23T07:18:54;12.30;99.90
45643;DHT22;31358;46.008;11.144;2023-03-23T07:21:19;12.30;99.90
45643;DHT22;31358;46.008;11.144;2023-03-23T07:23:45;12.30;99.90
45643;DHT22;31358;46.008;11.144;2023-03-23T07:26:12;12.40;99.90
45643;DHT22;31358;46.008;11.144;2023-03-23T07:28:38;12.60;99.90
45643;DHT22;31358;46.008;11.144;2023-03-23T07:31:05;12.60;99.90
45643;DHT22;31358;46.008;11.144;2023-03-23T07:33:31;12.50;99.90
45643;DHT22;31358;46.008;11.144;2023-03-23T07:35:59;12.50;99.90
45643;DHT22;31358;46.008;11.144;2023-03-23T07:38:26;12.50;99.90
45643;DHT22;31358;46.008;11.144;2023-03-23T07:40:53;12.40;99.90
45643;DHT22;31358;46.008;11.144;2023-03-23T07:43:19;12.40;99.90
45643;DHT22;31358;46.008;11.144;2023-03-23T07:45:45;12.40;99.90
45643;DHT22;31358;46.008;11.144;2023-03-23T07:48:12;12.30;99.90
45643;DHT22;31358;46.008;11.144;2023-03-23T07:50:38;12.30;99.90
45643;DHT22;31358;46.008;11.144;2023-03-23T07:53:03;12.50;99.90
45643;DHT22;31358;46.008;11.144;2023-03-23T07:55:29;12.70;99.90
45643;DHT22;31358;46.008;11.144;2023-03-23T07:57:55;12.90;99.90
45643;DHT22;31358;46.008;11.144;2023-03-23T08:00:22;13.10;99.90
45643;DHT22;31358;46.008;11.144;2023-03-23T08:02:54;13.40;99.60
45643;DHT22;31358;46.008;11.144;2023-03-23T08:05:25;13.40;99.30
45643;DHT22;31358;46.008;11.144;2023-03-23T08:07:52;13.30;99.30
45643;DHT22;31358;46.008;11.144;2023-03-23T08:10:20;13.20;99.70
45643;DHT22;31358;46.008;11.144;2023-03-23T08:12:51;13.30;99.90
45643;DHT22;31358;46.008;11.144;2023-03-23T08:15:17;13.40;99.90
45643;DHT22;31358;46.008;11.144;2023-03-23T08:17:43;13.30;99.90
45643;DHT22;31358;46.008;11.144;2023-03-23T08:20:11;13.10;99.90
45643;DHT22;31358;46.008;11.144;2023-03-23T08:22:42;13.00;99.90
45643;DHT22;31358;46.008;11.144;2023-03-23T08:25:09;13.10;99.90
45643;DHT22;31358;46.008;11.144;2023-03-23T08:27:36;13.10;99.90
45643;DHT22;31358;46.008;11.144;2023-03-23T08:30:04;13.10;99.60
45643;DHT22;31358;46.008;11.144;2023-03-23T08:32:31;13.30;99.40
45643;DHT22;31358;46.008;11.144;2023-03-23T08:34:56;13.50;99.60
45643;DHT22;31358;46.008;11.144;2023-03-23T08:37:23;13.60;98.40
45643;DHT22;31358;46.008;11.144;2023-03-23T08:39:54;13.70;98.40
45643;DHT22;31358;46.008;11.144;2023-03-23T08:42:20;13.90;98.60
45643;DHT22;31358;46.008;11.144;2023-03-23T08:44:45;14.00;98.60
45643;DHT22;31358;46.008;11.144;2023-03-23T08:47:11;14.00;97.90
45643;DHT22;31358;46.008;11.144;2023-03-23T08:49:37;13.90;98.30
45643;DHT22;31358;46.008;11.144;2023-03-23T08:52:03;14.10;98.20
45643;DHT22;31358;46.008;11.144;2023-03-23T08:54:28;14.30;98.00
45643;DHT22;31358;46.008;11.144;2023-03-23T08:57:00;14.30;97.80
45643;DHT22;31358;46.008;11.144;2023-03-23T08:59:27;14.30;98.00
45643;DHT22;31358;46.008;11.144;2023-03-23T09:01:53;14.50;98.30
45643;DHT22;31358;46.008;11.144;2023-03-23T09:04:20;14.50;97.90
45643;DHT22;31358;46.008;11.144;2023-03-23T09:06:46;14.50;97.60
45643;DHT22;31358;46.008;11.144;2023-03-23T09:09:12;14.50;97.30
45643;DHT22;31358;46.008;11.144;2023-03-23T09:11:38;14.60;97.60
45643;DHT22;31358;46.008;11.144;2023-03-23T09:14:05;14.80;97.50
45643;DHT22;31358;46.008;11.144;2023-03-23T09:16:32;14.80;97.40
45643;DHT22;31358;46.008;11.144;2023-03-23T09:18:59;14.70;97.30
45643;DHT22;31358;46.008;11.144;2023-03-23T09:21:26;14.80;97.20
45643;DHT22;31358;46.008;11.144;2023-03-23T09:23:52;14.70;97.30
45643;DHT22;31358;46.008;11.144;2023-03-23T09:26:19;14.80;97.40
45643;DHT22;31358;46.008;11.144;2023-03-23T09:28:45;15.10;96.30
45643;DHT22;31358;46.008;11.144;2023-03-23T09:31:12;15.60;96.00
45643;DHT22;31358;46.008;11.144;2023-03-23T09:33:38;15.60;96.30
45643;DHT22;31358;46.008;11.144;2023-03-23T09:36:04;15.60;96.70
45643;DHT22;31358;46.008;11.144;2023-03-23T09:38:31;15.60;96.20
45643;DHT22;31358;46.008;11.144;2023-03-23T09:47:59;16.10;95.10
45643;DHT22;31358;46.008;11.144;2023-03-23T09:49:55;16.10;95.10
45643;DHT22;31358;46.008;11.144;2023-03-23T09:52:26;15.90;94.70
45643;DHT22;31358;46.008;11.144;2023-03-23T09:54:55;15.90;94.60
45643;DHT22;31358;46.008;11.144;2023-03-23T09:57:25;15.90;95.20
45643;DHT22;31358;46.008;11.144;2023-03-23T09:59:59;15.90;95.10
45643;DHT22;31358;46.008;11.144;2023-03-23T10:07:42;16.20;95.00
45643;DHT22;31358;46.008;11.144;2023-03-23T10:10:13;16.40;95.20
45643;DHT22;31358;46.008;11.144;2023-03-23T10:12:54;16.50;94.80
45643;DHT22;31358;46.008;11.144;2023-03-23T10:15:27;16.30;94.60
45643;DHT22;31358;46.008;11.144;2023-03-23T10:20:57;16.10;94.40
45643;DHT22;31358;46.008;11.144;2023-03-23T10:29:28;16.40;94.10
45643;DHT22;31358;46.008;11.144;2023-03-23T10:32:00;16.50;94.30
45643;DHT22;31358;46.008;11.144;2023-03-23T10:37:29;16.20;94.10
45643;DHT22;31358;46.008;11.144;2023-03-23T10:40:03;16.20;94.60
45643;DHT22;31358;46.008;11.144;2023-03-23T10:42:37;16.20;94.60
45643;DHT22;31358;46.008;11.144;2023-03-23T10:45:15;16.10;94.70
45643;DHT22;31358;46.008;11.144;2023-03-23T10:50:32;16.10;94.90
45643;DHT22;31358;46.008;11.144;2023-03-23T10:53:00;16.10;94.90
45643;DHT22;31358;46.008;11.144;2023-03-23T10:55:37;16.30;94.50
45643;DHT22;31358;46.008;11.144;2023-03-23T10:58:05;16.30;94.60
45643;DHT22;31358;46.008;11.144;2023-03-23T11:00:32;16.30;94.60
45643;DHT22;31358;46.008;11.144;2023-03-23T11:03:02;16.20;94.30
45643;DHT22;31358;46.008;11.144;2023-03-23T11:05:42;16.20;94.30
45643;DHT22;31358;46.008;11.144;2023-03-23T11:08:24;16.60;95.20
45643;DHT22;31358;46.008;11.144;2023-03-23T11:10:53;16.70;94.20
45643;DHT22;31358;46.008;11.144;2023-03-23T11:13:22;16.90;94.50
45643;DHT22;31358;46.008;11.144;2023-03-23T11:15:50;17.10;94.70
45643;DHT22;31358;46.008;11.144;2023-03-23T11:18:21;17.30;93.90
45643;DHT22;31358;46.008;11.144;2023-03-23T11:20:55;17.60;93.40
45643;DHT22;31358;46.008;11.144;2023-03-23T11:23:24;17.70;93.60
45643;DHT22;31358;46.008;11.144;2023-03-23T11:26:10;18.10;93.40
45643;DHT22;31358;46.008;11.144;2023-03-23T11:28:46;18.00;92.70
45643;DHT22;31358;46.008;11.144;2023-03-23T11:31:12;17.90;93.00
45643;DHT22;31358;46.008;11.144;2023-03-23T11:34:03;17.90;93.20
45643;DHT22;31358;46.008;11.144;2023-03-23T11:37:03;17.90;92.60
45643;DHT22;31358;46.008;11.144;2023-03-23T11:42:20;18.20;92.10
45643;DHT22;31358;46.008;11.144;2023-03-23T11:44:46;18.30;91.60
45643;DHT22;31358;46.008;11.144;2023-03-23T11:52:23;18.80;92.30
45643;DHT22;31358;46.008;11.144;2023-03-23T11:55:04;18.60;91.40
45643;DHT22;31358;46.008;11.144;2023-03-23T11:57:33;18.60;91.50
45643;DHT22;31358;46.008;11.144;2023-03-23T11:59:59;18.60;91.20
45643;DHT22;31358;46.008;11.144;2023-03-23T12:03:00;18.90;91.70
45643;DHT22;31358;46.008;11.144;2023-03-23T12:10:45;19.10;91.30
45643;DHT22;31358;46.008;11.144;2023-03-23T12:16:00;19.20;91.20
45643;DHT22;31358;46.008;11.144;2023-03-23T12:18:45;19.10;91.20
45643;DHT22;31358;46.008;11.144;2023-03-23T12:26:15;19.10;91.70
45643;DHT22;31358;46.008;11.144;2023-03-23T12:44:45;19.90;90.50
45643;DHT22;31358;46.008;11.144;2023-03-23T12:50:00;20.40;90.10
45643;DHT22;31358;46.008;11.144;2023-03-23T12:57:44;21.10;85.50
45643;DHT22;31358;46.008;11.144;2023-03-23T13:00:34;20.90;85.90
45643;DHT22;31358;46.008;11.144;2023-03-23T13:03:16;20.40;84.70
45643;DHT22;31358;46.008;11.144;2023-03-23T13:06:00;20.20;85.20
45643;DHT22;31358;46.008;11.144;2023-03-23T13:08:38;20.00;85.70
45643;DHT22;31358;46.008;11.144;2023-03-23T13:11:12;20.00;86.00
45643;DHT22;31358;46.008;11.144;2023-03-23T13:13:51;20.00;87.60
45643;DHT22;31358;46.008;11.144;2023-03-23T13:19:09;20.50;86.20
45643;DHT22;31358;46.008;11.144;2023-03-23T13:21:43;20.70;86.30
45643;DHT22;31358;46.008;11.144;2023-03-23T13:24:20;20.80;85.20
45643;DHT22;31358;46.008;11.144;2023-03-23T13:26:49;20.90;85.70
45643;DHT22;31358;46.008;11.144;2023-03-23T13:29:18;20.70;85.60
45643;DHT22;31358;46.008;11.144;2023-03-23T13:31:46;20.60;85.30
45643;DHT22;31358;46.008;11.144;2023-03-23T13:37:05;20.60;85.30
45643;DHT22;31358;46.008;11.144;2023-03-23T13:39:36;20.60;84.10
45643;DHT22;31358;46.008;11.144;2023-03-23T13:53:14;20.80;85.30
45643;DHT22;31358;46.008;11.144;2023-03-23T13:55:42;21.00;83.30
45643;DHT22;31358;46.008;11.144;2023-03-23T14:00:44;21.30;82.80
45643;DHT22;31358;46.008;11.144;2023-03-23T14:03:17;21.40;83.00
45643;DHT22;31358;46.008;11.144;2023-03-23T14:10:54;21.10;82.50
45643;DHT22;31358;46.008;11.144;2023-03-23T14:13:42;21.20;82.00
45643;DHT22;31358;46.008;11.144;2023-03-23T14:19:00;21.10;82.50
45643;DHT22;31358;46.008;11.144;2023-03-23T14:21:37;21.10;81.40
45643;DHT22;31358;46.008;11.144;2023-03-23T14:24:10;21.00;81.10
45643;DHT22;31358;46.008;11.144;2023-03-23T14:26:38;21.00;81.80
45643;DHT22;31358;46.008;11.144;2023-03-23T14:29:04;20.90;81.20
45643;DHT22;31358;46.008;11.144;2023-03-23T14:31:31;20.90;82.20
45643;DHT22;31358;46.008;11.144;2023-03-23T14:34:02;21.10;81.00
45643;DHT22;31358;46.008;11.144;2023-03-23T14:36:30;21.10;80.10
45643;DHT22;31358;46.008;11.144;2023-03-23T14:41:30;21.10;79.60
45643;DHT22;31358;46.008;11.144;2023-03-23T14:43:56;21.00;79.70
45643;DHT22;31358;46.008;11.144;2023-03-23T14:46:24;21.10;79.60
45643;DHT22;31358;46.008;11.144;2023-03-23T14:48:50;21.10;80.30
45643;DHT22;31358;46.008;11.144;2023-03-23T14:51:20;21.10;79.50
45643;DHT22;31358;46.008;11.144;2023-03-23T14:53:46;21.00;79.10
45643;DHT22;31358;46.008;11.144;2023-03-23T14:56:22;21.10;79.50
45643;DHT22;31358;46.008;11.144;2023-03-23T14:58:50;21.10;78.80
45643;DHT22;31358;46.008;11.144;2023-03-23T15:01:26;21.20;79.30
45643;DHT22;31358;46.008;11.144;2023-03-23T15:04:12;21.10;78.60
45643;DHT22;31358;46.008;11.144;2023-03-23T15:06:42;21.10;78.00
45643;DHT22;31358;46.008;11.144;2023-03-23T15:09:21;21.00;77.80
45643;DHT22;31358;46.008;11.144;2023-03-23T15:11:58;21.00;78.20
45643;DHT22;31358;46.008;11.144;2023-03-23T15:14:30;21.10;78.90
45643;DHT22;31358;46.008;11.144;2023-03-23T15:16:59;21.10;79.00
45643;DHT22;31358;46.008;11.144;2023-03-23T15:19:32;21.10;79.20
45643;DHT22;31358;46.008;11.144;2023-03-23T15:24:47;20.90;78.30
45643;DHT22;31358;46.008;11.144;2023-03-23T15:27:39;21.00;78.80
45643;DHT22;31358;46.008;11.144;2023-03-23T15:32:52;21.00;79.10
45643;DHT22;31358;46.008;11.144;2023-03-23T15:35:21;21.00;79.10
45643;DHT22;31358;46.008;11.144;2023-03-23T15:37:59;20.90;78.70
45643;DHT22;31358;46.008;11.144;2023-03-23T15:40:27;20.80;79.00
45643;DHT22;31358;46.008;11.144;2023-03-23T15:43:19;20.70;79.00
45643;DHT22;31358;46.008;11.144;2023-03-23T15:45:56;20.50;79.10
45643;DHT22;31358;46.008;11.144;2023-03-23T15:48:24;20.60;79.30
45643;DHT22;31358;46.008;11.144;2023-03-23T15:50:50;20.50;79.10
45643;DHT22;31358;46.008;11.144;2023-03-23T15:55:55;20.40;79.00
45643;DHT22;31358;46.008;11.144;2023-03-23T15:58:23;20.40;78.80
45643;DHT22;31358;46.008;11.144;2023-03-23T16:00:49;20.30;79.30
45643;DHT22;31358;46.008;11.144;2023-03-23T16:03:23;20.30;79.70
45643;DHT22;31358;46.008;11.144;2023-03-23T16:05:52;20.10;79.30
45643;DHT22;31358;46.008;11.144;2023-03-23T16:08:18;20.00;79.80
45643;DHT22;31358;46.008;11.144;2023-03-23T16:10:44;20.00;79.90
45643;DHT22;31358;46.008;11.144;2023-03-23T16:13:10;20.00;79.60
45643;DHT22;31358;46.008;11.144;2023-03-23T16:15:36;19.90;79.80
45643;DHT22;31358;46.008;11.144;2023-03-23T16:18:01;19.70;79.30
45643;DHT22;31358;46.008;11.144;2023-03-23T16:20:28;19.60;79.60
45643;DHT22;31358;46.008;11.144;2023-03-23T16:22:54;19.40;79.40
45643;DHT22;31358;46.008;11.144;2023-03-23T16:25:21;19.30;79.50
45643;DHT22;31358;46.008;11.144;2023-03-23T16:27:46;19.20;79.30
45643;DHT22;31358;46.008;11.144;2023-03-23T16:30:21;19.20;78.90
45643;DHT22;31358;46.008;11.144;2023-03-23T16:32:47;19.10;79.10
45643;DHT22;31358;46.008;11.144;2023-03-23T16:35:14;19.10;79.00
45643;DHT22;31358;46.008;11.144;2023-03-23T16:37:47;19.00;79.00
45643;DHT22;31358;46.008;11.144;2023-03-23T16:40:14;19.00;79.50
45643;DHT22;31358;46.008;11.144;2023-03-23T16:42:41;18.90;79.60
45643;DHT22;31358;46.008;11.144;2023-03-23T16:45:07;18.90;79.40
45643;DHT22;31358;46.008;11.144;2023-03-23T16:47:33;18.80;79.70
45643;DHT22;31358;46.008;11.144;2023-03-23T16:49:58;18.90;79.20
45643;DHT22;31358;46.008;11.144;2023-03-23T16:52:24;18.80;78.80
45643;DHT22;31358;46.008;11.144;2023-03-23T16:54:50;18.70;78.80
45643;DHT22;31358;46.008;11.144;2023-03-23T16:57:15;18.60;78.90
45643;DHT22;31358;46.008;11.144;2023-03-23T16:59:41;18.70;78.60
45643;DHT22;31358;46.008;11.144;2023-03-23T17:02:10;18.60;78.70
45643;DHT22;31358;46.008;11.144;2023-03-23T17:04:35;18.60;78.60
45643;DHT22;31358;46.008;11.144;2023-03-23T17:07:01;18.50;78.50
45643;DHT22;31358;46.008;11.144;2023-03-23T17:09:27;18.40;78.70
45643;DHT22;31358;46.008;11.144;2023-03-23T17:11:53;18.30;79.30
45643;DHT22;31358;46.008;11.144;2023-03-23T17:14:20;18.20;79.10
45643;DHT22;31358;46.008;11.144;2023-03-23T17:16:46;18.20;79.40
45643;DHT22;31358;46.008;11.144;2023-03-23T17:19:12;18.10;78.70
45643;DHT22;31358;46.008;11.144;2023-03-23T17:21:39;18.10;79.30
45643;DHT22;31358;46.008;11.144;2023-03-23T17:24:06;18.10;79.10
45643;DHT22;31358;46.008;11.144;2023-03-23T17:26:31;18.10;79.00
45643;DHT22;31358;46.008;11.144;2023-03-23T17:28:57;18.00;79.30
45643;DHT22;31358;46.008;11.144;2023-03-23T17:31:23;18.00;79.60
45643;DHT22;31358;46.008;11.144;2023-03-23T17:33:49;18.00;79.60
45643;DHT22;31358;46.008;11.144;2023-03-23T17:36:16;17.80;79.70
45643;DHT22;31358;46.008;11.144;2023-03-23T17:38:42;17.70;80.10
45643;DHT22;31358;46.008;11.144;2023-03-23T17:41:08;17.80;80.40